sensor_id;sensor_type;location;lat;lon;timestamp;P1;durP1;ratioP1;P2;durP2;ratioP2
48623;SDS011;34422;45.802;16.114;2023-05-27T00:00:11;12.07;;;6.57;;
48623;SDS011;34422;45.802;16.114;2023-05-27T00:02:38;9.55;;;6.07;;
48623;SDS011;34422;45.802;16.114;2023-05-27T00:05:05;12.07;;;7.35;;
48623;SDS011;34422;45.802;16.114;2023-05-27T00:07:32;9.23;;;6.32;;
48623;SDS011;34422;45.802;16.114;2023-05-27T00:09:59;11.05;;;6.35;;
48623;SDS011;34422;45.802;16.114;2023-05-27T00:12:26;9.77;;;6.38;;
48623;SDS011;34422;45.802;16.114;2023-05-27T00:14:53;13.27;;;7.47;;
48623;SDS011;34422;45.802;16.114;2023-05-27T00:17:19;10.73;;;6.25;;
48623;SDS011;34422;45.802;16.114;2023-05-27T00:19:47;12.13;;;6.60;;
48623;SDS011;34422;45.802;16.114;2023-05-27T00:22:14;11.57;;;6.30;;
48623;SDS011;34422;45.802;16.114;2023-05-27T00:24:41;9.88;;;6.65;;
48623;SDS011;34422;45.802;16.114;2023-05-27T00:27:09;10.30;;;6.05;;
48623;SDS011;34422;45.802;16.114;2023-05-27T00:29:37;10.93;;;6.68;;
48623;SDS011;34422;45.802;16.114;2023-05-27T00:32:04;11.02;;;6.00;;
48623;SDS011;34422;45.802;16.114;2023-05-27T00:34:31;10.25;;;6.10;;
48623;SDS011;34422;45.802;16.114;2023-05-27T00:36:59;10.02;;;6.05;;
48623;SDS011;34422;45.802;16.114;2023-05-27T00:39:26;11.90;;;6.28;;
48623;SDS011;34422;45.802;16.114;2023-05-27T00:41:53;11.98;;;5.80;;
48623;SDS011;34422;45.802;16.114;2023-05-27T00:44:20;12.85;;;6.18;;
48623;SDS011;34422;45.802;16.114;2023-05-27T00:46:47;10.52;;;5.97;;
48623;SDS011;34422;45.802;16.114;2023-05-27T00:49:15;14.43;;;5.78;;
48623;SDS011;34422;45.802;16.114;2023-05-27T00:51:43;12.02;;;6.45;;
48623;SDS011;34422;45.802;16.114;2023-05-27T00:54:11;9.80;;;5.70;;
48623;SDS011;34422;45.802;16.114;2023-05-27T00:56:38;11.60;;;6.20;;
48623;SDS011;34422;45.802;16.114;2023-05-27T00:59:05;10.35;;;6.32;;
48623;SDS011;34422;45.802;16.114;2023-05-27T01:01:32;10.40;;;5.65;;
48623;SDS011;34422;45.802;16.114;2023-05-27T01:06:35;11.60;;;5.80;;
48623;SDS011;34422;45.802;16.114;2023-05-27T01:12:14;10.15;;;5.75;;
48623;SDS011;34422;45.802;16.114;2023-05-27T01:14:48;10.75;;;6.13;;
48623;SDS011;34422;45.802;16.114;2023-05-27T01:17:18;10.15;;;6.53;;
48623;SDS011;34422;45.802;16.114;2023-05-27T01:19:46;11.85;;;6.35;;
48623;SDS011;34422;45.802;16.114;2023-05-27T01:22:14;10.63;;;6.03;;
48623;SDS011;34422;45.802;16.114;2023-05-27T01:24:41;10.77;;;6.07;;
48623;SDS011;34422;45.802;16.114;2023-05-27T01:27:09;10.15;;;5.18;;
48623;SDS011;34422;45.802;16.114;2023-05-27T01:29:39;10.15;;;5.63;;
48623;SDS011;34422;45.802;16.114;2023-05-27T01:37:51;9.52;;;5.97;;
48623;SDS011;34422;45.802;16.114;2023-05-27T01:40:19;10.75;;;5.90;;
48623;SDS011;34422;45.802;16.114;2023-05-27T01:42:47;9.63;;;5.55;;
48623;SDS011;34422;45.802;16.114;2023-05-27T01:45:15;11.02;;;5.85;;
48623;SDS011;34422;45.802;16.114;2023-05-27T01:47:42;12.45;;;5.72;;
48623;SDS011;34422;45.802;16.114;2023-05-27T01:50:10;9.13;;;5.70;;
48623;SDS011;34422;45.802;16.114;2023-05-27T01:52:37;12.55;;;5.78;;
48623;SDS011;34422;45.802;16.114;2023-05-27T01:55:04;10.25;;;6.32;;
48623;SDS011;34422;45.802;16.114;2023-05-27T01:57:31;9.95;;;5.53;;
48623;SDS011;34422;45.802;16.114;2023-05-27T01:59:58;10.63;;;5.80;;
48623;SDS011;34422;45.802;16.114;2023-05-27T02:02:25;10.80;;;5.43;;
48623;SDS011;34422;45.802;16.114;2023-05-27T02:04:51;9.10;;;5.68;;
48623;SDS011;34422;45.802;16.114;2023-05-27T02:07:18;13.52;;;5.55;;
48623;SDS011;34422;45.802;16.114;2023-05-27T02:09:45;11.90;;;5.95;;
48623;SDS011;34422;45.802;16.114;2023-05-27T02:12:12;11.88;;;5.60;;
48623;SDS011;34422;45.802;16.114;2023-05-27T02:14:39;10.02;;;5.82;;
48623;SDS011;34422;45.802;16.114;2023-05-27T02:17:07;10.73;;;6.05;;
48623;SDS011;34422;45.802;16.114;2023-05-27T02:19:34;12.27;;;6.20;;
48623;SDS011;34422;45.802;16.114;2023-05-27T02:22:01;14.20;;;6.32;;
48623;SDS011;34422;45.802;16.114;2023-05-27T02:24:28;10.68;;;5.65;;
48623;SDS011;34422;45.802;16.114;2023-05-27T02:26:55;10.68;;;5.50;;
48623;SDS011;34422;45.802;16.114;2023-05-27T02:29:21;11.50;;;6.15;;
48623;SDS011;34422;45.802;16.114;2023-05-27T02:31:48;9.68;;;5.30;;
48623;SDS011;34422;45.802;16.114;2023-05-27T02:34:15;10.25;;;5.78;;
48623;SDS011;34422;45.802;16.114;2023-05-27T02:36:42;10.07;;;5.88;;
48623;SDS011;34422;45.802;16.114;2023-05-27T02:39:09;12.30;;;6.43;;
48623;SDS011;34422;45.802;16.114;2023-05-27T02:41:36;13.50;;;6.43;;
48623;SDS011;34422;45.802;16.114;2023-05-27T02:44:04;10.38;;;5.55;;
48623;SDS011;34422;45.802;16.114;2023-05-27T02:46:31;11.73;;;5.22;;
48623;SDS011;34422;45.802;16.114;2023-05-27T02:48:58;12.48;;;5.80;;
48623;SDS011;34422;45.802;16.114;2023-05-27T02:51:25;8.52;;;5.03;;
48623;SDS011;34422;45.802;16.114;2023-05-27T02:53:52;11.32;;;5.80;;
48623;SDS011;34422;45.802;16.114;2023-05-27T02:56:19;11.82;;;5.40;;
48623;SDS011;34422;45.802;16.114;2023-05-27T02:58:46;12.73;;;6.25;;
48623;SDS011;34422;45.802;16.114;2023-05-27T03:01:13;9.98;;;5.63;;
48623;SDS011;34422;45.802;16.114;2023-05-27T03:03:39;10.35;;;5.95;;
48623;SDS011;34422;45.802;16.114;2023-05-27T03:06:06;9.05;;;5.05;;
48623;SDS011;34422;45.802;16.114;2023-05-27T03:08:33;11.10;;;5.72;;
48623;SDS011;34422;45.802;16.114;2023-05-27T03:11:00;10.57;;;5.70;;
48623;SDS011;34422;45.802;16.114;2023-05-27T03:13:27;10.55;;;5.50;;
48623;SDS011;34422;45.802;16.114;2023-05-27T03:15:54;9.02;;;5.32;;
48623;SDS011;34422;45.802;16.114;2023-05-27T03:18:20;10.68;;;4.97;;
48623;SDS011;34422;45.802;16.114;2023-05-27T03:20:47;11.88;;;5.80;;
48623;SDS011;34422;45.802;16.114;2023-05-27T03:23:14;11.32;;;5.38;;
48623;SDS011;34422;45.802;16.114;2023-05-27T03:25:41;11.02;;;5.13;;
48623;SDS011;34422;45.802;16.114;2023-05-27T03:28:08;12.98;;;5.95;;
48623;SDS011;34422;45.802;16.114;2023-05-27T03:30:34;9.23;;;5.35;;
48623;SDS011;34422;45.802;16.114;2023-05-27T03:33:02;12.57;;;5.93;;
48623;SDS011;34422;45.802;16.114;2023-05-27T03:35:29;13.50;;;6.05;;
48623;SDS011;34422;45.802;16.114;2023-05-27T03:37:56;11.38;;;5.47;;
48623;SDS011;34422;45.802;16.114;2023-05-27T03:40:22;10.48;;;5.70;;
48623;SDS011;34422;45.802;16.114;2023-05-27T03:42:49;11.30;;;5.75;;
48623;SDS011;34422;45.802;16.114;2023-05-27T03:45:16;9.68;;;5.63;;
48623;SDS011;34422;45.802;16.114;2023-05-27T03:47:43;10.40;;;5.53;;
48623;SDS011;34422;45.802;16.114;2023-05-27T03:50:09;13.98;;;5.47;;
48623;SDS011;34422;45.802;16.114;2023-05-27T03:52:37;10.30;;;5.70;;
48623;SDS011;34422;45.802;16.114;2023-05-27T03:55:03;11.35;;;5.68;;
48623;SDS011;34422;45.802;16.114;2023-05-27T03:57:31;11.40;;;5.13;;
48623;SDS011;34422;45.802;16.114;2023-05-27T03:59:57;10.18;;;5.72;;
48623;SDS011;34422;45.802;16.114;2023-05-27T04:02:24;13.70;;;6.13;;
48623;SDS011;34422;45.802;16.114;2023-05-27T04:04:51;10.70;;;5.20;;
48623;SDS011;34422;45.802;16.114;2023-05-27T04:07:19;8.82;;;4.90;;
48623;SDS011;34422;45.802;16.114;2023-05-27T04:09:46;10.65;;;5.13;;
48623;SDS011;34422;45.802;16.114;2023-05-27T04:12:13;12.85;;;5.22;;
48623;SDS011;34422;45.802;16.114;2023-05-27T04:14:39;12.70;;;5.05;;
48623;SDS011;34422;45.802;16.114;2023-05-27T04:17:06;10.45;;;5.00;;
48623;SDS011;34422;45.802;16.114;2023-05-27T04:19:33;12.85;;;5.00;;
48623;SDS011;34422;45.802;16.114;2023-05-27T04:22:00;11.40;;;5.07;;
48623;SDS011;34422;45.802;16.114;2023-05-27T04:24:27;13.68;;;4.82;;
48623;SDS011;34422;45.802;16.114;2023-05-27T04:26:54;11.20;;;4.63;;
48623;SDS011;34422;45.802;16.114;2023-05-27T04:29:20;9.32;;;4.38;;
48623;SDS011;34422;45.802;16.114;2023-05-27T04:31:49;9.43;;;4.65;;
48623;SDS011;34422;45.802;16.114;2023-05-27T04:34:17;11.23;;;4.45;;
48623;SDS011;34422;45.802;16.114;2023-05-27T04:36:44;7.78;;;3.75;;
48623;SDS011;34422;45.802;16.114;2023-05-27T04:39:15;11.02;;;4.15;;
48623;SDS011;34422;45.802;16.114;2023-05-27T04:41:43;10.35;;;4.20;;
48623;SDS011;34422;45.802;16.114;2023-05-27T04:44:11;10.93;;;4.28;;
48623;SDS011;34422;45.802;16.114;2023-05-27T04:46:38;10.18;;;4.40;;
48623;SDS011;34422;45.802;16.114;2023-05-27T04:49:09;11.02;;;4.38;;
48623;SDS011;34422;45.802;16.114;2023-05-27T04:51:36;9.30;;;3.75;;
48623;SDS011;34422;45.802;16.114;2023-05-27T04:54:04;11.40;;;4.78;;
48623;SDS011;34422;45.802;16.114;2023-05-27T04:56:32;12.75;;;3.97;;
48623;SDS011;34422;45.802;16.114;2023-05-27T04:58:59;8.63;;;3.92;;
48623;SDS011;34422;45.802;16.114;2023-05-27T05:01:26;9.07;;;4.95;;
48623;SDS011;34422;45.802;16.114;2023-05-27T05:03:55;11.95;;;4.57;;
48623;SDS011;34422;45.802;16.114;2023-05-27T05:06:39;8.80;;;4.30;;
48623;SDS011;34422;45.802;16.114;2023-05-27T05:09:07;12.70;;;5.00;;
48623;SDS011;34422;45.802;16.114;2023-05-27T05:11:38;9.85;;;3.85;;
48623;SDS011;34422;45.802;16.114;2023-05-27T05:14:04;10.57;;;4.40;;
48623;SDS011;34422;45.802;16.114;2023-05-27T05:16:31;9.25;;;3.85;;
48623;SDS011;34422;45.802;16.114;2023-05-27T05:18:58;10.70;;;4.28;;
48623;SDS011;34422;45.802;16.114;2023-05-27T05:21:25;7.40;;;4.03;;
48623;SDS011;34422;45.802;16.114;2023-05-27T05:23:52;9.35;;;4.25;;
48623;SDS011;34422;45.802;16.114;2023-05-27T05:26:18;9.55;;;4.20;;
48623;SDS011;34422;45.802;16.114;2023-05-27T05:28:45;8.60;;;3.83;;
48623;SDS011;34422;45.802;16.114;2023-05-27T05:31:12;11.05;;;3.80;;
48623;SDS011;34422;45.802;16.114;2023-05-27T05:33:39;9.23;;;3.72;;
48623;SDS011;34422;45.802;16.114;2023-05-27T05:36:06;9.70;;;3.80;;
48623;SDS011;34422;45.802;16.114;2023-05-27T05:38:34;7.57;;;3.65;;
48623;SDS011;34422;45.802;16.114;2023-05-27T05:41:00;11.20;;;4.28;;
48623;SDS011;34422;45.802;16.114;2023-05-27T05:43:27;12.20;;;4.18;;
48623;SDS011;34422;45.802;16.114;2023-05-27T05:45:54;8.45;;;3.67;;
48623;SDS011;34422;45.802;16.114;2023-05-27T05:48:21;9.93;;;3.55;;
48623;SDS011;34422;45.802;16.114;2023-05-27T05:50:48;13.00;;;4.57;;
48623;SDS011;34422;45.802;16.114;2023-05-27T05:53:14;12.07;;;4.25;;
48623;SDS011;34422;45.802;16.114;2023-05-27T05:55:41;11.23;;;4.05;;
48623;SDS011;34422;45.802;16.114;2023-05-27T05:58:08;9.68;;;3.85;;
48623;SDS011;34422;45.802;16.114;2023-05-27T06:00:35;7.93;;;3.83;;
48623;SDS011;34422;45.802;16.114;2023-05-27T06:03:02;8.20;;;3.88;;
48623;SDS011;34422;45.802;16.114;2023-05-27T06:05:28;9.00;;;4.38;;
48623;SDS011;34422;45.802;16.114;2023-05-27T06:07:55;10.15;;;4.32;;
48623;SDS011;34422;45.802;16.114;2023-05-27T06:10:22;8.85;;;4.18;;
48623;SDS011;34422;45.802;16.114;2023-05-27T06:12:49;9.55;;;4.03;;
48623;SDS011;34422;45.802;16.114;2023-05-27T06:15:16;10.13;;;3.92;;
48623;SDS011;34422;45.802;16.114;2023-05-27T06:17:43;20.75;;;5.55;;
48623;SDS011;34422;45.802;16.114;2023-05-27T06:20:10;17.88;;;5.25;;
48623;SDS011;34422;45.802;16.114;2023-05-27T06:22:37;20.92;;;5.50;;
48623;SDS011;34422;45.802;16.114;2023-05-27T06:25:04;11.48;;;4.45;;
48623;SDS011;34422;45.802;16.114;2023-05-27T06:27:32;13.38;;;4.10;;
48623;SDS011;34422;45.802;16.114;2023-05-27T06:29:58;11.05;;;3.92;;
48623;SDS011;34422;45.802;16.114;2023-05-27T06:32:25;11.45;;;3.97;;
48623;SDS011;34422;45.802;16.114;2023-05-27T06:34:52;13.32;;;4.15;;
48623;SDS011;34422;45.802;16.114;2023-05-27T06:37:19;11.15;;;4.40;;
48623;SDS011;34422;45.802;16.114;2023-05-27T06:39:46;10.65;;;4.35;;
48623;SDS011;34422;45.802;16.114;2023-05-27T06:42:13;13.00;;;4.28;;
48623;SDS011;34422;45.802;16.114;2023-05-27T06:44:40;11.20;;;4.03;;
48623;SDS011;34422;45.802;16.114;2023-05-27T06:47:08;10.77;;;4.10;;
48623;SDS011;34422;45.802;16.114;2023-05-27T06:49:35;14.18;;;4.47;;
48623;SDS011;34422;45.802;16.114;2023-05-27T06:52:02;10.25;;;3.80;;
48623;SDS011;34422;45.802;16.114;2023-05-27T06:54:30;11.90;;;4.10;;
48623;SDS011;34422;45.802;16.114;2023-05-27T06:56:57;8.20;;;3.33;;
48623;SDS011;34422;45.802;16.114;2023-05-27T06:59:24;11.07;;;3.92;;
48623;SDS011;34422;45.802;16.114;2023-05-27T07:01:50;8.30;;;3.78;;
48623;SDS011;34422;45.802;16.114;2023-05-27T07:04:17;11.27;;;3.90;;
48623;SDS011;34422;45.802;16.114;2023-05-27T07:06:44;11.57;;;3.88;;
48623;SDS011;34422;45.802;16.114;2023-05-27T07:09:11;20.45;;;4.90;;
48623;SDS011;34422;45.802;16.114;2023-05-27T07:11:38;12.27;;;4.50;;
48623;SDS011;34422;45.802;16.114;2023-05-27T07:14:05;16.00;;;4.45;;
48623;SDS011;34422;45.802;16.114;2023-05-27T07:16:32;12.80;;;3.97;;
48623;SDS011;34422;45.802;16.114;2023-05-27T07:18:59;11.60;;;4.50;;
48623;SDS011;34422;45.802;16.114;2023-05-27T07:21:26;20.98;;;5.93;;
48623;SDS011;34422;45.802;16.114;2023-05-27T07:23:53;13.35;;;4.57;;
48623;SDS011;34422;45.802;16.114;2023-05-27T07:26:20;13.52;;;5.13;;
48623;SDS011;34422;45.802;16.114;2023-05-27T07:28:47;13.60;;;4.30;;
48623;SDS011;34422;45.802;16.114;2023-05-27T07:31:14;12.02;;;4.47;;
48623;SDS011;34422;45.802;16.114;2023-05-27T07:33:41;12.68;;;4.15;;
48623;SDS011;34422;45.802;16.114;2023-05-27T07:36:08;10.70;;;4.53;;
48623;SDS011;34422;45.802;16.114;2023-05-27T07:38:36;10.52;;;4.00;;
48623;SDS011;34422;45.802;16.114;2023-05-27T07:41:03;26.48;;;5.78;;
48623;SDS011;34422;45.802;16.114;2023-05-27T07:43:30;11.52;;;3.97;;
48623;SDS011;34422;45.802;16.114;2023-05-27T07:45:57;20.27;;;5.03;;
48623;SDS011;34422;45.802;16.114;2023-05-27T07:48:23;8.52;;;4.13;;
48623;SDS011;34422;45.802;16.114;2023-05-27T07:50:50;15.63;;;4.47;;
48623;SDS011;34422;45.802;16.114;2023-05-27T07:53:17;11.05;;;4.32;;
48623;SDS011;34422;45.802;16.114;2023-05-27T07:55:44;11.55;;;4.30;;
48623;SDS011;34422;45.802;16.114;2023-05-27T07:58:10;35.30;;;5.80;;
48623;SDS011;34422;45.802;16.114;2023-05-27T08:00:37;16.25;;;4.80;;
48623;SDS011;34422;45.802;16.114;2023-05-27T08:03:04;9.20;;;4.50;;
48623;SDS011;34422;45.802;16.114;2023-05-27T08:05:31;13.00;;;4.55;;
48623;SDS011;34422;45.802;16.114;2023-05-27T08:07:59;12.40;;;5.30;;
48623;SDS011;34422;45.802;16.114;2023-05-27T08:10:26;12.30;;;4.60;;
48623;SDS011;34422;45.802;16.114;2023-05-27T08:12:53;12.23;;;5.63;;
48623;SDS011;34422;45.802;16.114;2023-05-27T08:15:19;9.02;;;4.68;;
48623;SDS011;34422;45.802;16.114;2023-05-27T08:17:46;12.25;;;4.72;;
48623;SDS011;34422;45.802;16.114;2023-05-27T08:20:13;11.15;;;4.65;;
48623;SDS011;34422;45.802;16.114;2023-05-27T08:22:40;9.52;;;3.90;;
48623;SDS011;34422;45.802;16.114;2023-05-27T08:25:08;13.20;;;4.93;;
48623;SDS011;34422;45.802;16.114;2023-05-27T08:27:42;11.07;;;4.47;;
48623;SDS011;34422;45.802;16.114;2023-05-27T08:30:19;7.40;;;4.00;;
48623;SDS011;34422;45.802;16.114;2023-05-27T08:32:46;11.30;;;5.03;;
48623;SDS011;34422;45.802;16.114;2023-05-27T08:35:13;9.25;;;4.47;;
48623;SDS011;34422;45.802;16.114;2023-05-27T08:37:40;10.20;;;4.18;;
48623;SDS011;34422;45.802;16.114;2023-05-27T08:40:09;11.88;;;4.85;;
48623;SDS011;34422;45.802;16.114;2023-05-27T08:42:39;12.10;;;5.05;;
48623;SDS011;34422;45.802;16.114;2023-05-27T08:45:07;15.13;;;5.22;;
48623;SDS011;34422;45.802;16.114;2023-05-27T08:47:35;10.73;;;4.93;;
48623;SDS011;34422;45.802;16.114;2023-05-27T08:50:02;11.07;;;4.75;;
48623;SDS011;34422;45.802;16.114;2023-05-27T08:52:29;12.38;;;5.00;;
48623;SDS011;34422;45.802;16.114;2023-05-27T08:54:57;10.27;;;4.80;;
48623;SDS011;34422;45.802;16.114;2023-05-27T08:57:27;12.43;;;5.32;;
48623;SDS011;34422;45.802;16.114;2023-05-27T08:59:55;14.68;;;5.43;;
48623;SDS011;34422;45.802;16.114;2023-05-27T09:02:23;9.43;;;4.97;;
48623;SDS011;34422;45.802;16.114;2023-05-27T09:04:50;9.18;;;4.75;;
48623;SDS011;34422;45.802;16.114;2023-05-27T09:07:20;12.93;;;5.57;;
48623;SDS011;34422;45.802;16.114;2023-05-27T09:09:57;9.98;;;4.53;;
48623;SDS011;34422;45.802;16.114;2023-05-27T09:12:25;17.58;;;6.68;;
48623;SDS011;34422;45.802;16.114;2023-05-27T09:14:52;10.57;;;5.57;;
48623;SDS011;34422;45.802;16.114;2023-05-27T09:17:23;10.45;;;5.60;;
48623;SDS011;34422;45.802;16.114;2023-05-27T09:19:53;14.55;;;5.00;;
48623;SDS011;34422;45.802;16.114;2023-05-27T09:22:25;14.02;;;5.35;;
48623;SDS011;34422;45.802;16.114;2023-05-27T09:24:56;11.10;;;5.15;;
48623;SDS011;34422;45.802;16.114;2023-05-27T09:27:24;11.75;;;5.53;;
48623;SDS011;34422;45.802;16.114;2023-05-27T09:29:52;13.00;;;6.47;;
48623;SDS011;34422;45.802;16.114;2023-05-27T09:34:54;19.15;;;5.97;;
48623;SDS011;34422;45.802;16.114;2023-05-27T09:37:29;14.63;;;5.85;;
48623;SDS011;34422;45.802;16.114;2023-05-27T09:40:04;13.30;;;5.68;;
48623;SDS011;34422;45.802;16.114;2023-05-27T09:47:42;13.68;;;4.78;;
48623;SDS011;34422;45.802;16.114;2023-05-27T09:50:14;17.50;;;5.50;;
48623;SDS011;34422;45.802;16.114;2023-05-27T09:52:45;22.45;;;8.85;;
48623;SDS011;34422;45.802;16.114;2023-05-27T09:55:13;58.33;;;10.95;;
48623;SDS011;34422;45.802;16.114;2023-05-27T09:57:42;18.27;;;5.72;;
48623;SDS011;34422;45.802;16.114;2023-05-27T10:00:10;15.35;;;5.57;;
48623;SDS011;34422;45.802;16.114;2023-05-27T10:02:41;15.68;;;6.13;;
48623;SDS011;34422;45.802;16.114;2023-05-27T10:05:11;11.60;;;5.18;;
48623;SDS011;34422;45.802;16.114;2023-05-27T10:07:41;15.43;;;5.57;;
48623;SDS011;34422;45.802;16.114;2023-05-27T10:10:10;12.68;;;5.53;;
48623;SDS011;34422;45.802;16.114;2023-05-27T10:12:39;11.15;;;5.93;;
48623;SDS011;34422;45.802;16.114;2023-05-27T10:15:07;10.35;;;4.72;;
48623;SDS011;34422;45.802;16.114;2023-05-27T10:18:08;11.57;;;4.93;;
48623;SDS011;34422;45.802;16.114;2023-05-27T10:20:32;9.68;;;5.68;;
48623;SDS011;34422;45.802;16.114;2023-05-27T10:25:45;9.77;;;5.07;;
48623;SDS011;34422;45.802;16.114;2023-05-27T10:28:32;11.93;;;5.95;;
48623;SDS011;34422;45.802;16.114;2023-05-27T10:31:13;10.68;;;4.80;;
48623;SDS011;34422;45.802;16.114;2023-05-27T10:33:42;11.65;;;5.47;;
48623;SDS011;34422;45.802;16.114;2023-05-27T10:36:31;10.23;;;5.10;;
48623;SDS011;34422;45.802;16.114;2023-05-27T10:39:00;13.75;;;5.80;;
48623;SDS011;34422;45.802;16.114;2023-05-27T10:41:41;16.75;;;5.80;;
48623;SDS011;34422;45.802;16.114;2023-05-27T10:44:09;12.35;;;5.57;;
48623;SDS011;34422;45.802;16.114;2023-05-27T10:46:40;11.20;;;4.93;;
48623;SDS011;34422;45.802;16.114;2023-05-27T10:49:21;9.85;;;5.18;;
48623;SDS011;34422;45.802;16.114;2023-05-27T10:51:50;12.32;;;5.75;;
48623;SDS011;34422;45.802;16.114;2023-05-27T10:54:18;12.68;;;5.68;;
48623;SDS011;34422;45.802;16.114;2023-05-27T10:56:51;10.70;;;5.72;;
48623;SDS011;34422;45.802;16.114;2023-05-27T10:59:21;15.13;;;6.22;;
48623;SDS011;34422;45.802;16.114;2023-05-27T11:06:57;10.20;;;5.28;;
48623;SDS011;34422;45.802;16.114;2023-05-27T11:09:26;12.90;;;6.22;;
48623;SDS011;34422;45.802;16.114;2023-05-27T11:11:54;12.27;;;5.72;;
48623;SDS011;34422;45.802;16.114;2023-05-27T11:14:25;11.93;;;6.13;;
48623;SDS011;34422;45.802;16.114;2023-05-27T11:16:52;11.13;;;5.97;;
48623;SDS011;34422;45.802;16.114;2023-05-27T11:19:20;12.88;;;5.97;;
48623;SDS011;34422;45.802;16.114;2023-05-27T11:21:47;14.68;;;5.95;;
48623;SDS011;34422;45.802;16.114;2023-05-27T11:24:18;13.93;;;6.18;;
48623;SDS011;34422;45.802;16.114;2023-05-27T11:26:46;17.20;;;6.68;;
48623;SDS011;34422;45.802;16.114;2023-05-27T11:29:14;26.75;;;7.03;;
48623;SDS011;34422;45.802;16.114;2023-05-27T11:31:41;17.88;;;6.47;;
48623;SDS011;34422;45.802;16.114;2023-05-27T11:34:16;12.70;;;5.60;;
48623;SDS011;34422;45.802;16.114;2023-05-27T11:36:48;14.57;;;6.28;;
48623;SDS011;34422;45.802;16.114;2023-05-27T11:39:16;18.03;;;6.53;;
48623;SDS011;34422;45.802;16.114;2023-05-27T11:41:49;14.98;;;6.47;;
48623;SDS011;34422;45.802;16.114;2023-05-27T11:44:18;16.83;;;7.38;;
48623;SDS011;34422;45.802;16.114;2023-05-27T11:46:47;14.10;;;6.78;;
48623;SDS011;34422;45.802;16.114;2023-05-27T11:49:15;14.05;;;6.32;;
48623;SDS011;34422;45.802;16.114;2023-05-27T11:51:46;11.70;;;6.07;;
48623;SDS011;34422;45.802;16.114;2023-05-27T11:54:24;12.40;;;6.70;;
48623;SDS011;34422;45.802;16.114;2023-05-27T11:56:52;11.43;;;6.05;;
48623;SDS011;34422;45.802;16.114;2023-05-27T11:59:20;10.68;;;5.90;;
48623;SDS011;34422;45.802;16.114;2023-05-27T12:01:48;11.27;;;5.45;;
48623;SDS011;34422;45.802;16.114;2023-05-27T12:04:16;13.45;;;6.13;;
48623;SDS011;34422;45.802;16.114;2023-05-27T12:06:43;11.05;;;6.32;;
48623;SDS011;34422;45.802;16.114;2023-05-27T12:09:11;14.05;;;6.70;;
48623;SDS011;34422;45.802;16.114;2023-05-27T12:11:38;13.38;;;6.93;;
48623;SDS011;34422;45.802;16.114;2023-05-27T12:14:05;15.95;;;6.40;;
48623;SDS011;34422;45.802;16.114;2023-05-27T12:16:32;16.45;;;9.13;;
48623;SDS011;34422;45.802;16.114;2023-05-27T12:18:59;10.63;;;7.15;;
48623;SDS011;34422;45.802;16.114;2023-05-27T12:21:26;11.23;;;7.13;;
48623;SDS011;34422;45.802;16.114;2023-05-27T12:23:54;11.27;;;6.85;;
48623;SDS011;34422;45.802;16.114;2023-05-27T12:26:21;11.10;;;6.72;;
48623;SDS011;34422;45.802;16.114;2023-05-27T12:28:48;11.13;;;6.57;;
48623;SDS011;34422;45.802;16.114;2023-05-27T12:31:15;9.25;;;6.53;;
48623;SDS011;34422;45.802;16.114;2023-05-27T12:33:42;20.42;;;7.50;;
48623;SDS011;34422;45.802;16.114;2023-05-27T12:36:10;10.82;;;6.53;;
48623;SDS011;34422;45.802;16.114;2023-05-27T12:38:38;15.05;;;6.93;;
48623;SDS011;34422;45.802;16.114;2023-05-27T12:41:04;10.73;;;6.88;;
48623;SDS011;34422;45.802;16.114;2023-05-27T12:43:31;20.50;;;7.82;;
48623;SDS011;34422;45.802;16.114;2023-05-27T12:45:58;14.90;;;6.95;;
48623;SDS011;34422;45.802;16.114;2023-05-27T12:48:26;24.90;;;7.78;;
48623;SDS011;34422;45.802;16.114;2023-05-27T12:50:52;16.38;;;7.25;;
48623;SDS011;34422;45.802;16.114;2023-05-27T12:53:19;12.50;;;6.63;;
48623;SDS011;34422;45.802;16.114;2023-05-27T12:55:46;10.18;;;6.55;;
48623;SDS011;34422;45.802;16.114;2023-05-27T12:58:13;12.93;;;6.97;;
48623;SDS011;34422;45.802;16.114;2023-05-27T13:00:40;12.02;;;6.90;;
48623;SDS011;34422;45.802;16.114;2023-05-27T13:03:07;15.65;;;6.93;;
48623;SDS011;34422;45.802;16.114;2023-05-27T13:05:34;11.85;;;6.53;;
48623;SDS011;34422;45.802;16.114;2023-05-27T13:08:02;9.57;;;6.70;;
48623;SDS011;34422;45.802;16.114;2023-05-27T13:10:33;14.00;;;6.43;;
48623;SDS011;34422;45.802;16.114;2023-05-27T13:13:00;15.85;;;7.38;;
48623;SDS011;34422;45.802;16.114;2023-05-27T13:15:27;17.20;;;6.38;;
48623;SDS011;34422;45.802;16.114;2023-05-27T13:17:55;11.27;;;6.70;;
48623;SDS011;34422;45.802;16.114;2023-05-27T13:20:23;11.10;;;6.50;;
48623;SDS011;34422;45.802;16.114;2023-05-27T13:22:51;24.05;;;7.90;;
48623;SDS011;34422;45.802;16.114;2023-05-27T13:25:19;11.13;;;6.18;;
48623;SDS011;34422;45.802;16.114;2023-05-27T13:27:46;11.80;;;6.72;;
48623;SDS011;34422;45.802;16.114;2023-05-27T13:30:13;12.85;;;6.50;;
48623;SDS011;34422;45.802;16.114;2023-05-27T13:32:41;12.45;;;7.18;;
48623;SDS011;34422;45.802;16.114;2023-05-27T13:35:09;12.32;;;6.75;;
48623;SDS011;34422;45.802;16.114;2023-05-27T13:37:40;12.00;;;6.80;;
48623;SDS011;34422;45.802;16.114;2023-05-27T13:40:08;11.15;;;7.00;;
48623;SDS011;34422;45.802;16.114;2023-05-27T13:42:36;12.60;;;6.88;;
48623;SDS011;34422;45.802;16.114;2023-05-27T13:45:03;11.65;;;6.53;;
48623;SDS011;34422;45.802;16.114;2023-05-27T13:47:30;11.20;;;6.78;;
48623;SDS011;34422;45.802;16.114;2023-05-27T13:49:58;14.88;;;7.00;;
48623;SDS011;34422;45.802;16.114;2023-05-27T13:52:25;14.43;;;7.00;;
48623;SDS011;34422;45.802;16.114;2023-05-27T13:54:52;11.10;;;5.75;;
48623;SDS011;34422;45.802;16.114;2023-05-27T13:57:19;14.93;;;6.70;;
48623;SDS011;34422;45.802;16.114;2023-05-27T13:59:45;18.50;;;7.50;;
48623;SDS011;34422;45.802;16.114;2023-05-27T14:02:12;11.02;;;6.72;;
48623;SDS011;34422;45.802;16.114;2023-05-27T14:04:39;12.93;;;6.57;;
48623;SDS011;34422;45.802;16.114;2023-05-27T14:07:06;11.40;;;6.20;;
48623;SDS011;34422;45.802;16.114;2023-05-27T14:09:32;19.00;;;7.32;;
48623;SDS011;34422;45.802;16.114;2023-05-27T14:11:59;12.35;;;6.53;;
48623;SDS011;34422;45.802;16.114;2023-05-27T14:14:26;10.77;;;7.10;;
48623;SDS011;34422;45.802;16.114;2023-05-27T14:16:53;12.00;;;5.78;;
48623;SDS011;34422;45.802;16.114;2023-05-27T14:19:20;12.30;;;6.43;;
48623;SDS011;34422;45.802;16.114;2023-05-27T14:21:47;9.90;;;5.78;;
48623;SDS011;34422;45.802;16.114;2023-05-27T14:24:14;11.95;;;5.93;;
48623;SDS011;34422;45.802;16.114;2023-05-27T14:26:42;12.80;;;6.47;;
48623;SDS011;34422;45.802;16.114;2023-05-27T14:29:10;16.05;;;7.72;;
48623;SDS011;34422;45.802;16.114;2023-05-27T14:31:38;11.18;;;5.88;;
48623;SDS011;34422;45.802;16.114;2023-05-27T14:34:04;9.90;;;5.80;;
48623;SDS011;34422;45.802;16.114;2023-05-27T14:36:31;11.85;;;6.65;;
48623;SDS011;34422;45.802;16.114;2023-05-27T14:38:58;13.10;;;6.55;;
48623;SDS011;34422;45.802;16.114;2023-05-27T14:41:29;11.35;;;6.53;;
48623;SDS011;34422;45.802;16.114;2023-05-27T14:43:56;10.48;;;5.95;;
48623;SDS011;34422;45.802;16.114;2023-05-27T14:46:23;9.20;;;5.75;;
48623;SDS011;34422;45.802;16.114;2023-05-27T14:48:50;8.82;;;5.68;;
48623;SDS011;34422;45.802;16.114;2023-05-27T14:51:20;10.40;;;6.20;;
48623;SDS011;34422;45.802;16.114;2023-05-27T14:53:47;11.68;;;6.15;;